Sandspit Airport
CYZP : now visible

Airfield :











YOU CAN JOIN US ON...

 
LOGIN :

Register | Disclaimer

   EN    FR    IT 

 









Legend :    VFR   Marginal VFR   IFR   Intensive IFR   Very Intensive IFR
Visi :
Ceiling :
>= 8 km
>= 3000ft
5 to 8 km
1000 to 3000 ft
1500m to 5 km
500 to 1000 ft
800 to 1500m
200 to 500 ft
< 800m
< 200 ft
Symbols :   Thunderstorms  Fog  Heavy snow  Heavy precipitations  Wind > 20 kt






- Airport Elevation : 21 ft
- IATA code : YZP


CYZP - Sandspit

CURRENT METAR :
  • 270400Z AUTO 24015G21KT 9SM CLR 07/04 A2999 RMK SLP156

EXPIRED METARs :
  • 270300Z AUTO 24033G39KT 9SM CLR 07/04 A2994 RMK SLP140

TAF AMD TAF CYZP
Valid from the 27 at 01:00 until the 27 at 13:00 UTC


270101Z 2701/2713 23020G30KT P6SM FEW020 BKN050
TEMPO 2701/2709 P6SM -SHRA BKN020
BECMG 2704/2706 23015G25KT
FM270900 16012G22KT P6SM -RA SCT008 OVC020
TEMPO 2709/2713 2SM -RA BR OVC008 RMK FCST BASED ON AUTO OBS. NXT FCST BY 270700Z



MET'MAP, your aeronautical weather chart ! - Copyright ORBIFLY December 2007 - Disclaimer

ORBIFLY MET'MAP TEAM :

Programming & Development : Alexandra Zaïnal
Concept & original design : Baudouin d'Aumeries
Assistance for programming : Marc-Olivier Méhu
Technical & hardware support : Manuel Goepfert

Contact : metmap@orbifly.com




SOURCES & CREDITS :

   NOAA       Earth
Advisory